sensor_id;sensor_type;location;lat;lon;timestamp;temperature;humidity
56123;DHT22;42426;46.104;19.656;2022-08-11T00:00:36;588.90;1356.80
56123;DHT22;42426;46.104;19.656;2022-08-11T00:03:08;564.00;1382.40
56123;DHT22;42426;46.104;19.656;2022-08-11T00:05:49;563.90;1356.80
56123;DHT22;42426;46.104;19.656;2022-08-11T00:08:25;563.90;1382.40
56123;DHT22;42426;46.104;19.656;2022-08-11T00:11:02;564.00;1331.20
56123;DHT22;42426;46.104;19.656;2022-08-11T00:13:38;563.90;1331.20
56123;DHT22;42426;46.104;19.656;2022-08-11T00:16:14;563.80;1356.80
56123;DHT22;42426;46.104;19.656;2022-08-11T00:18:46;563.60;1356.80
56123;DHT22;42426;46.104;19.656;2022-08-11T00:21:14;563.70;1356.80
56123;DHT22;42426;46.104;19.656;2022-08-11T00:23:46;563.60;1331.20
56123;DHT22;42426;46.104;19.656;2022-08-11T00:26:17;563.60;1356.80
56123;DHT22;42426;46.104;19.656;2022-08-11T00:28:44;563.70;1356.80
56123;DHT22;42426;46.104;19.656;2022-08-11T00:31:49;563.60;1356.80
56123;DHT22;42426;46.104;19.656;2022-08-11T00:34:22;564.00;1408.00
56123;DHT22;42426;46.104;19.656;2022-08-11T00:36:57;563.90;1382.40
56123;DHT22;42426;46.104;19.656;2022-08-11T00:39:25;563.80;1356.80
56123;DHT22;42426;46.104;19.656;2022-08-11T00:48:06;563.80;1356.80
56123;DHT22;42426;46.104;19.656;2022-08-11T01:02:18;563.40;1356.80
56123;DHT22;42426;46.104;19.656;2022-08-11T01:05:22;563.40;1408.00
56123;DHT22;42426;46.104;19.656;2022-08-11T01:22:27;538.40;1382.40
56123;DHT22;42426;46.104;19.656;2022-08-11T01:54:10;538.30;1382.40
56123;DHT22;42426;46.104;19.656;2022-08-11T01:59:45;538.30;1382.40
56123;DHT22;42426;46.104;19.656;2022-08-11T02:02:56;538.30;1459.20
56123;DHT22;42426;46.104;19.656;2022-08-11T02:05:35;538.40;1356.80
56123;DHT22;42426;46.104;19.656;2022-08-11T02:08:48;538.50;1382.40
56123;DHT22;42426;46.104;19.656;2022-08-11T02:34:23;537.90;1484.80
56123;DHT22;42426;46.104;19.656;2022-08-11T02:37:19;537.70;1459.20
56123;DHT22;42426;46.104;19.656;2022-08-11T02:42:40;537.90;1433.60
56123;DHT22;42426;46.104;19.656;2022-08-11T02:51:46;538.10;1382.40
56123;DHT22;42426;46.104;19.656;2022-08-11T02:57:40;537.90;1408.00
56123;DHT22;42426;46.104;19.656;2022-08-11T03:00:10;538.00;1408.00
56123;DHT22;42426;46.104;19.656;2022-08-11T03:02:54;538.10;1459.20
56123;DHT22;42426;46.104;19.656;2022-08-11T03:08:40;538.10;1382.40
56123;DHT22;42426;46.104;19.656;2022-08-11T03:11:54;538.10;1408.00
56123;DHT22;42426;46.104;19.656;2022-08-11T03:17:53;538.00;1408.00
56123;DHT22;42426;46.104;19.656;2022-08-11T03:25:44;538.10;1484.80
56123;DHT22;42426;46.104;19.656;2022-08-11T03:28:27;538.10;1408.00
56123;DHT22;42426;46.104;19.656;2022-08-11T03:31:33;538.20;1408.00
56123;DHT22;42426;46.104;19.656;2022-08-11T03:34:07;537.90;1408.00
56123;DHT22;42426;46.104;19.656;2022-08-11T03:41:39;537.70;1459.20
56123;DHT22;42426;46.104;19.656;2022-08-11T03:44:42;537.80;1408.00
56123;DHT22;42426;46.104;19.656;2022-08-11T03:55:56;563.30;1433.60
56123;DHT22;42426;46.104;19.656;2022-08-11T04:13:28;538.30;1433.60
56123;DHT22;42426;46.104;19.656;2022-08-11T04:27:52;563.20;1433.60
56123;DHT22;42426;46.104;19.656;2022-08-11T04:30:29;563.20;1433.60
56123;DHT22;42426;46.104;19.656;2022-08-11T04:38:30;538.50;1382.40
56123;DHT22;42426;46.104;19.656;2022-08-11T04:54:07;537.80;1484.80
56123;DHT22;42426;46.104;19.656;2022-08-11T04:57:08;538.30;1433.60
56123;DHT22;42426;46.104;19.656;2022-08-11T05:00:09;538.40;1433.60
56123;DHT22;42426;46.104;19.656;2022-08-11T05:09:04;563.50;1433.60
56123;DHT22;42426;46.104;19.656;2022-08-11T05:17:11;563.50;1408.00
56123;DHT22;42426;46.104;19.656;2022-08-11T05:19:57;563.50;1408.00
56123;DHT22;42426;46.104;19.656;2022-08-11T05:22:47;563.60;1408.00
56123;DHT22;42426;46.104;19.656;2022-08-11T05:25:34;563.80;1382.40
56123;DHT22;42426;46.104;19.656;2022-08-11T05:31:14;564.00;1382.40
56123;DHT22;42426;46.104;19.656;2022-08-11T05:34:42;563.70;1408.00
56123;DHT22;42426;46.104;19.656;2022-08-11T05:40:13;563.60;1382.40
56123;DHT22;42426;46.104;19.656;2022-08-11T05:43:02;563.90;1382.40
56123;DHT22;42426;46.104;19.656;2022-08-11T05:46:05;563.90;1382.40
56123;DHT22;42426;46.104;19.656;2022-08-11T05:48:51;564.10;1356.80
56123;DHT22;42426;46.104;19.656;2022-08-11T05:51:39;588.80;1356.80
56123;DHT22;42426;46.104;19.656;2022-08-11T05:54:26;564.10;1356.80
56123;DHT22;42426;46.104;19.656;2022-08-11T05:57:22;588.80;1356.80
56123;DHT22;42426;46.104;19.656;2022-08-11T06:00:03;588.90;1331.20
56123;DHT22;42426;46.104;19.656;2022-08-11T06:02:30;589.00;1356.80
56123;DHT22;42426;46.104;19.656;2022-08-11T06:04:57;588.90;1331.20
56123;DHT22;42426;46.104;19.656;2022-08-11T06:07:31;589.10;1331.20
56123;DHT22;42426;46.104;19.656;2022-08-11T06:09:58;589.00;1331.20
56123;DHT22;42426;46.104;19.656;2022-08-11T06:12:28;589.50;1305.60
56123;DHT22;42426;46.104;19.656;2022-08-11T06:14:59;589.10;1305.60
56123;DHT22;42426;46.104;19.656;2022-08-11T06:17:28;589.40;1305.60
56123;DHT22;42426;46.104;19.656;2022-08-11T06:20:03;589.10;1331.20
56123;DHT22;42426;46.104;19.656;2022-08-11T06:22:31;589.10;1331.20
56123;DHT22;42426;46.104;19.656;2022-08-11T06:24:59;589.00;1331.20
56123;DHT22;42426;46.104;19.656;2022-08-11T06:27:28;588.80;1356.80
56123;DHT22;42426;46.104;19.656;2022-08-11T06:29:55;588.90;1356.80
56123;DHT22;42426;46.104;19.656;2022-08-11T06:32:33;589.00;1331.20
56123;DHT22;42426;46.104;19.656;2022-08-11T06:43:20;589.60;1305.60
56123;DHT22;42426;46.104;19.656;2022-08-11T06:46:06;589.70;1280.00
56123;DHT22;42426;46.104;19.656;2022-08-11T06:48:34;589.60;1305.60
56123;DHT22;42426;46.104;19.656;2022-08-11T06:51:07;589.30;1305.60
56123;DHT22;42426;46.104;19.656;2022-08-11T06:53:46;589.10;1356.80
56123;DHT22;42426;46.104;19.656;2022-08-11T06:56:20;589.00;1382.40
56123;DHT22;42426;46.104;19.656;2022-08-11T06:59:10;588.90;1356.80
56123;DHT22;42426;46.104;19.656;2022-08-11T07:02:19;588.90;1382.40
56123;DHT22;42426;46.104;19.656;2022-08-11T07:05:37;588.80;1382.40
56123;DHT22;42426;46.104;19.656;2022-08-11T07:14:04;588.90;1356.80
56123;DHT22;42426;46.104;19.656;2022-08-11T07:16:50;589.00;1356.80
56123;DHT22;42426;46.104;19.656;2022-08-11T07:19:24;588.90;1356.80
56123;DHT22;42426;46.104;19.656;2022-08-11T07:22:11;589.00;1356.80
56123;DHT22;42426;46.104;19.656;2022-08-11T07:25:04;589.20;1280.00
56123;DHT22;42426;46.104;19.656;2022-08-11T07:27:57;589.30;1254.40
56123;DHT22;42426;46.104;19.656;2022-08-11T07:30:43;589.30;1280.00
56123;DHT22;42426;46.104;19.656;2022-08-11T07:33:10;589.30;1254.40
56123;DHT22;42426;46.104;19.656;2022-08-11T07:35:44;589.30;1280.00
56123;DHT22;42426;46.104;19.656;2022-08-11T07:38:18;589.30;1280.00
56123;DHT22;42426;46.104;19.656;2022-08-11T07:40:47;589.40;1305.60
56123;DHT22;42426;46.104;19.656;2022-08-11T07:43:13;589.40;1305.60
56123;DHT22;42426;46.104;19.656;2022-08-11T07:45:44;589.50;1280.00
56123;DHT22;42426;46.104;19.656;2022-08-11T07:48:30;589.60;1228.80
56123;DHT22;42426;46.104;19.656;2022-08-11T07:51:19;589.60;1203.20
56123;DHT22;42426;46.104;19.656;2022-08-11T07:54:04;589.60;1254.40
56123;DHT22;42426;46.104;19.656;2022-08-11T07:56:34;589.70;1254.40
56123;DHT22;42426;46.104;19.656;2022-08-11T07:59:02;589.70;1254.40
56123;DHT22;42426;46.104;19.656;2022-08-11T08:01:47;614.40;1254.40
56123;DHT22;42426;46.104;19.656;2022-08-11T08:04:32;614.50;1254.40
56123;DHT22;42426;46.104;19.656;2022-08-11T08:07:20;614.60;1254.40
56123;DHT22;42426;46.104;19.656;2022-08-11T08:10:09;614.60;1228.80
56123;DHT22;42426;46.104;19.656;2022-08-11T08:12:54;614.70;1228.80
56123;DHT22;42426;46.104;19.656;2022-08-11T08:15:40;614.80;1203.20
56123;DHT22;42426;46.104;19.656;2022-08-11T08:18:24;614.80;1228.80
56123;DHT22;42426;46.104;19.656;2022-08-11T08:20:51;614.80;1203.20
56123;DHT22;42426;46.104;19.656;2022-08-11T08:23:21;614.90;1177.60
56123;DHT22;42426;46.104;19.656;2022-08-11T08:25:59;615.00;1152.00
56123;DHT22;42426;46.104;19.656;2022-08-11T08:28:29;615.00;1177.60
56123;DHT22;42426;46.104;19.656;2022-08-11T08:30:55;615.00;1126.40
56123;DHT22;42426;46.104;19.656;2022-08-11T08:33:29;614.90;1126.40
56123;DHT22;42426;46.104;19.656;2022-08-11T08:35:59;615.00;1126.40
56123;DHT22;42426;46.104;19.656;2022-08-11T08:42:11;615.20;1177.60
56123;DHT22;42426;46.104;19.656;2022-08-11T08:48:06;615.30;1152.00
56123;DHT22;42426;46.104;19.656;2022-08-11T08:50:36;640.00;1152.00
56123;DHT22;42426;46.104;19.656;2022-08-11T08:53:24;640.10;1126.40
56123;DHT22;42426;46.104;19.656;2022-08-11T08:55:55;640.20;1152.00
56123;DHT22;42426;46.104;19.656;2022-08-11T08:58:23;640.70;1100.80
56123;DHT22;42426;46.104;19.656;2022-08-11T09:00:51;640.20;1100.80
56123;DHT22;42426;46.104;19.656;2022-08-11T09:03:19;640.30;1075.20
56123;DHT22;42426;46.104;19.656;2022-08-11T09:05:46;640.30;1126.40
56123;DHT22;42426;46.104;19.656;2022-08-11T09:08:16;640.30;1152.00
56123;DHT22;42426;46.104;19.656;2022-08-11T09:10:45;640.40;1152.00
56123;DHT22;42426;46.104;19.656;2022-08-11T09:13:14;640.40;1126.40
56123;DHT22;42426;46.104;19.656;2022-08-11T09:15:40;640.50;1075.20
56123;DHT22;42426;46.104;19.656;2022-08-11T09:18:07;640.50;1075.20
56123;DHT22;42426;46.104;19.656;2022-08-11T09:20:35;640.50;1075.20
56123;DHT22;42426;46.104;19.656;2022-08-11T09:23:05;640.60;1100.80
56123;DHT22;42426;46.104;19.656;2022-08-11T09:25:58;640.70;1024.00
56123;DHT22;42426;46.104;19.656;2022-08-11T09:28:45;640.70;1024.00
56123;DHT22;42426;46.104;19.656;2022-08-11T09:31:12;640.70;1049.60
56123;DHT22;42426;46.104;19.656;2022-08-11T09:33:40;640.80;1075.20
56123;DHT22;42426;46.104;19.656;2022-08-11T09:36:07;640.80;1075.20
56123;DHT22;42426;46.104;19.656;2022-08-11T09:38:52;640.90;1100.80
56123;DHT22;42426;46.104;19.656;2022-08-11T09:41:38;665.60;1100.80
56123;DHT22;42426;46.104;19.656;2022-08-11T09:44:06;665.60;1100.80
56123;DHT22;42426;46.104;19.656;2022-08-11T09:46:52;665.70;1075.20
56123;DHT22;42426;46.104;19.656;2022-08-11T09:49:20;665.70;1075.20
56123;DHT22;42426;46.104;19.656;2022-08-11T09:51:48;666.00;1100.80
56123;DHT22;42426;46.104;19.656;2022-08-11T11:43:55;717.20;896.00
56123;DHT22;42426;46.104;19.656;2022-08-11T11:46:28;717.10;921.60
56123;DHT22;42426;46.104;19.656;2022-08-11T11:48:55;717.10;870.40
56123;DHT22;42426;46.104;19.656;2022-08-11T11:51:25;716.90;870.40
56123;DHT22;42426;46.104;19.656;2022-08-11T11:53:52;717.00;921.60
56123;DHT22;42426;46.104;19.656;2022-08-11T11:56:21;717.10;921.60
56123;DHT22;42426;46.104;19.656;2022-08-11T11:58:49;717.10;896.00
56123;DHT22;42426;46.104;19.656;2022-08-11T12:01:36;717.10;870.40
56123;DHT22;42426;46.104;19.656;2022-08-11T12:04:04;717.20;844.80
56123;DHT22;42426;46.104;19.656;2022-08-11T12:06:31;717.30;896.00
56123;DHT22;42426;46.104;19.656;2022-08-11T12:08:58;717.40;896.00
56123;DHT22;42426;46.104;19.656;2022-08-11T12:11:26;717.60;870.40
56123;DHT22;42426;46.104;19.656;2022-08-11T12:14:11;717.40;844.80
56123;DHT22;42426;46.104;19.656;2022-08-11T12:16:40;717.40;870.40
56123;DHT22;42426;46.104;19.656;2022-08-11T12:19:16;717.60;870.40
56123;DHT22;42426;46.104;19.656;2022-08-11T12:37:47;717.70;844.80
56123;DHT22;42426;46.104;19.656;2022-08-11T12:40:18;717.30;819.20
56123;DHT22;42426;46.104;19.656;2022-08-11T12:43:08;717.20;844.80
56123;DHT22;42426;46.104;19.656;2022-08-11T12:45:57;717.10;896.00
56123;DHT22;42426;46.104;19.656;2022-08-11T12:48:39;717.20;896.00
56123;DHT22;42426;46.104;19.656;2022-08-11T12:51:28;717.30;844.80
56123;DHT22;42426;46.104;19.656;2022-08-11T12:54:16;717.30;870.40
56123;DHT22;42426;46.104;19.656;2022-08-11T12:56:46;717.40;870.40
56123;DHT22;42426;46.104;19.656;2022-08-11T12:59:32;717.40;896.00
56123;DHT22;42426;46.104;19.656;2022-08-11T13:02:19;717.40;870.40
56123;DHT22;42426;46.104;19.656;2022-08-11T13:05:07;717.40;896.00
56123;DHT22;42426;46.104;19.656;2022-08-11T13:07:34;717.30;921.60
56123;DHT22;42426;46.104;19.656;2022-08-11T13:10:04;717.30;921.60
56123;DHT22;42426;46.104;19.656;2022-08-11T13:12:31;717.30;921.60
56123;DHT22;42426;46.104;19.656;2022-08-11T13:15:21;717.40;921.60
56123;DHT22;42426;46.104;19.656;2022-08-11T13:17:50;717.50;896.00
56123;DHT22;42426;46.104;19.656;2022-08-11T13:35:26;717.70;793.60
56123;DHT22;42426;46.104;19.656;2022-08-11T13:37:53;717.50;819.20
56123;DHT22;42426;46.104;19.656;2022-08-11T13:40:21;717.40;844.80
56123;DHT22;42426;46.104;19.656;2022-08-11T13:42:50;717.60;844.80
56123;DHT22;42426;46.104;19.656;2022-08-11T13:45:16;742.40;870.40
56123;DHT22;42426;46.104;19.656;2022-08-11T13:59:59;742.90;819.20
56123;DHT22;42426;46.104;19.656;2022-08-11T14:02:37;742.60;819.20
56123;DHT22;42426;46.104;19.656;2022-08-11T14:05:26;742.50;870.40
56123;DHT22;42426;46.104;19.656;2022-08-11T14:08:00;742.40;844.80
56123;DHT22;42426;46.104;19.656;2022-08-11T14:10:30;742.40;896.00
56123;DHT22;42426;46.104;19.656;2022-08-11T14:13:01;717.70;819.20
56123;DHT22;42426;46.104;19.656;2022-08-11T14:15:47;717.60;768.00
56123;DHT22;42426;46.104;19.656;2022-08-11T14:18:25;717.60;793.60
56123;DHT22;42426;46.104;19.656;2022-08-11T14:20:56;717.60;819.20
56123;DHT22;42426;46.104;19.656;2022-08-11T14:23:52;717.60;768.00
56123;DHT22;42426;46.104;19.656;2022-08-11T14:26:21;717.60;844.80
56123;DHT22;42426;46.104;19.656;2022-08-11T14:31:36;717.60;870.40
56123;DHT22;42426;46.104;19.656;2022-08-11T14:34:04;717.70;870.40
56123;DHT22;42426;46.104;19.656;2022-08-11T14:36:34;717.40;896.00
56123;DHT22;42426;46.104;19.656;2022-08-11T14:39:04;717.50;819.20
56123;DHT22;42426;46.104;19.656;2022-08-11T14:41:31;717.70;844.80
56123;DHT22;42426;46.104;19.656;2022-08-11T14:44:16;742.40;844.80
56123;DHT22;42426;46.104;19.656;2022-08-11T14:47:01;742.50;844.80
56123;DHT22;42426;46.104;19.656;2022-08-11T14:52:09;742.90;819.20
56123;DHT22;42426;46.104;19.656;2022-08-11T14:54:35;743.10;819.20
56123;DHT22;42426;46.104;19.656;2022-08-11T14:57:34;743.20;793.60
56123;DHT22;42426;46.104;19.656;2022-08-11T15:00:02;768.00;819.20
56123;DHT22;42426;46.104;19.656;2022-08-11T15:02:29;743.30;768.00
56123;DHT22;42426;46.104;19.656;2022-08-11T15:05:14;743.20;793.60
56123;DHT22;42426;46.104;19.656;2022-08-11T15:07:40;743.10;793.60
56123;DHT22;42426;46.104;19.656;2022-08-11T15:10:08;742.90;819.20
56123;DHT22;42426;46.104;19.656;2022-08-11T15:12:36;742.80;793.60
56123;DHT22;42426;46.104;19.656;2022-08-11T15:15:05;742.70;819.20
56123;DHT22;42426;46.104;19.656;2022-08-11T15:17:54;742.60;819.20
56123;DHT22;42426;46.104;19.656;2022-08-11T15:20:22;742.50;793.60
56123;DHT22;42426;46.104;19.656;2022-08-11T15:23:07;742.40;870.40
56123;DHT22;42426;46.104;19.656;2022-08-11T15:26:27;742.40;870.40
56123;DHT22;42426;46.104;19.656;2022-08-11T15:29:14;717.70;819.20
56123;DHT22;42426;46.104;19.656;2022-08-11T15:32:01;717.60;793.60
56123;DHT22;42426;46.104;19.656;2022-08-11T15:34:50;717.60;793.60
56123;DHT22;42426;46.104;19.656;2022-08-11T15:37:36;717.50;870.40
56123;DHT22;42426;46.104;19.656;2022-08-11T15:40:29;717.40;896.00
56123;DHT22;42426;46.104;19.656;2022-08-11T15:43:30;717.30;896.00
56123;DHT22;42426;46.104;19.656;2022-08-11T15:46:19;717.20;896.00
56123;DHT22;42426;46.104;19.656;2022-08-11T15:48:55;717.20;896.00
56123;DHT22;42426;46.104;19.656;2022-08-11T15:51:29;717.10;972.80
56123;DHT22;42426;46.104;19.656;2022-08-11T15:53:59;717.00;921.60
56123;DHT22;42426;46.104;19.656;2022-08-11T15:56:29;716.90;947.20
56123;DHT22;42426;46.104;19.656;2022-08-11T15:58:57;716.90;947.20
56123;DHT22;42426;46.104;19.656;2022-08-11T16:01:45;717.10;947.20
56123;DHT22;42426;46.104;19.656;2022-08-11T16:04:34;717.60;921.60
56123;DHT22;42426;46.104;19.656;2022-08-11T16:07:20;742.90;896.00
56123;DHT22;42426;46.104;19.656;2022-08-11T16:23:12;845.10;819.20
56123;DHT22;42426;46.104;19.656;2022-08-11T16:25:42;845.40;768.00
56123;DHT22;42426;46.104;19.656;2022-08-11T16:28:11;845.10;768.00
56123;DHT22;42426;46.104;19.656;2022-08-11T16:30:40;819.90;793.60
56123;DHT22;42426;46.104;19.656;2022-08-11T16:33:09;819.20;819.20
56123;DHT22;42426;46.104;19.656;2022-08-11T16:38:24;793.60;819.20
56123;DHT22;42426;46.104;19.656;2022-08-11T16:51:30;742.60;921.60
56123;DHT22;42426;46.104;19.656;2022-08-11T16:53:57;717.70;896.00
56123;DHT22;42426;46.104;19.656;2022-08-11T16:56:31;717.60;870.40
56123;DHT22;42426;46.104;19.656;2022-08-11T16:59:00;717.40;921.60
56123;DHT22;42426;46.104;19.656;2022-08-11T17:01:46;717.40;972.80
56123;DHT22;42426;46.104;19.656;2022-08-11T17:04:46;717.20;921.60
56123;DHT22;42426;46.104;19.656;2022-08-11T17:07:36;717.00;947.20
56123;DHT22;42426;46.104;19.656;2022-08-11T17:10:32;716.90;947.20
56123;DHT22;42426;46.104;19.656;2022-08-11T17:15:48;716.90;947.20
56123;DHT22;42426;46.104;19.656;2022-08-11T17:44:41;691.20;972.80
56123;DHT22;42426;46.104;19.656;2022-08-11T17:47:26;666.20;998.40
56123;DHT22;42426;46.104;19.656;2022-08-11T17:50:13;666.10;1024.00
56123;DHT22;42426;46.104;19.656;2022-08-11T17:52:41;666.10;998.40
56123;DHT22;42426;46.104;19.656;2022-08-11T17:55:27;666.10;1049.60
56123;DHT22;42426;46.104;19.656;2022-08-11T17:58:12;666.00;998.40
56123;DHT22;42426;46.104;19.656;2022-08-11T18:00:58;665.90;1075.20
56123;DHT22;42426;46.104;19.656;2022-08-11T18:03:25;665.90;1126.40
56123;DHT22;42426;46.104;19.656;2022-08-11T18:06:08;665.70;1024.00
56123;DHT22;42426;46.104;19.656;2022-08-11T18:08:38;665.70;1049.60
56123;DHT22;42426;46.104;19.656;2022-08-11T18:11:24;665.70;1075.20
56123;DHT22;42426;46.104;19.656;2022-08-11T18:14:11;665.60;1024.00
56123;DHT22;42426;46.104;19.656;2022-08-11T18:16:56;640.90;1075.20
56123;DHT22;42426;46.104;19.656;2022-08-11T18:19:42;640.80;1024.00
56123;DHT22;42426;46.104;19.656;2022-08-11T18:22:35;640.70;1049.60
56123;DHT22;42426;46.104;19.656;2022-08-11T18:25:26;640.70;1024.00
56123;DHT22;42426;46.104;19.656;2022-08-11T18:28:15;640.60;1075.20
56123;DHT22;42426;46.104;19.656;2022-08-11T18:31:05;640.50;1049.60
56123;DHT22;42426;46.104;19.656;2022-08-11T18:33:55;640.40;1049.60
56123;DHT22;42426;46.104;19.656;2022-08-11T18:37:02;640.40;1075.20
56123;DHT22;42426;46.104;19.656;2022-08-11T18:39:52;640.40;1075.20
56123;DHT22;42426;46.104;19.656;2022-08-11T18:42:41;640.30;1075.20
56123;DHT22;42426;46.104;19.656;2022-08-11T18:45:28;640.30;1075.20
56123;DHT22;42426;46.104;19.656;2022-08-11T18:48:16;640.30;1100.80
56123;DHT22;42426;46.104;19.656;2022-08-11T18:51:04;640.30;1100.80
56123;DHT22;42426;46.104;19.656;2022-08-11T18:53:56;640.20;1126.40
56123;DHT22;42426;46.104;19.656;2022-08-11T18:56:45;640.10;1126.40
56123;DHT22;42426;46.104;19.656;2022-08-11T18:59:36;640.10;1100.80
56123;DHT22;42426;46.104;19.656;2022-08-11T19:02:23;640.20;1049.60
56123;DHT22;42426;46.104;19.656;2022-08-11T19:05:09;640.10;1049.60
56123;DHT22;42426;46.104;19.656;2022-08-11T19:07:56;640.10;1100.80
56123;DHT22;42426;46.104;19.656;2022-08-11T19:10:43;640.00;1100.80
56123;DHT22;42426;46.104;19.656;2022-08-11T19:13:31;615.30;1203.20
56123;DHT22;42426;46.104;19.656;2022-08-11T19:16:17;615.20;1126.40
56123;DHT22;42426;46.104;19.656;2022-08-11T19:19:03;615.10;1126.40
56123;DHT22;42426;46.104;19.656;2022-08-11T19:21:51;615.00;1126.40
56123;DHT22;42426;46.104;19.656;2022-08-11T19:24:39;615.00;1126.40
56123;DHT22;42426;46.104;19.656;2022-08-11T19:27:26;614.90;1126.40
56123;DHT22;42426;46.104;19.656;2022-08-11T19:30:11;614.80;1152.00
56123;DHT22;42426;46.104;19.656;2022-08-11T19:32:57;614.80;1152.00
56123;DHT22;42426;46.104;19.656;2022-08-11T19:35:42;614.80;1152.00
56123;DHT22;42426;46.104;19.656;2022-08-11T19:38:33;614.70;1177.60
56123;DHT22;42426;46.104;19.656;2022-08-11T19:41:19;614.60;1152.00
56123;DHT22;42426;46.104;19.656;2022-08-11T19:44:07;614.60;1152.00
56123;DHT22;42426;46.104;19.656;2022-08-11T19:46:51;614.50;1177.60
56123;DHT22;42426;46.104;19.656;2022-08-11T19:49:37;614.50;1177.60
56123;DHT22;42426;46.104;19.656;2022-08-11T19:52:23;614.50;1177.60
56123;DHT22;42426;46.104;19.656;2022-08-11T19:55:08;614.40;1177.60
56123;DHT22;42426;46.104;19.656;2022-08-11T19:57:54;614.40;1177.60
56123;DHT22;42426;46.104;19.656;2022-08-11T20:01:03;614.40;1203.20
56123;DHT22;42426;46.104;19.656;2022-08-11T20:03:48;589.70;1177.60
56123;DHT22;42426;46.104;19.656;2022-08-11T20:06:35;589.60;1152.00
56123;DHT22;42426;46.104;19.656;2022-08-11T20:09:20;589.60;1203.20
56123;DHT22;42426;46.104;19.656;2022-08-11T20:12:06;589.60;1203.20
56123;DHT22;42426;46.104;19.656;2022-08-11T20:14:52;589.70;1203.20
56123;DHT22;42426;46.104;19.656;2022-08-11T20:17:39;589.70;1254.40
56123;DHT22;42426;46.104;19.656;2022-08-11T20:20:26;589.70;1228.80
56123;DHT22;42426;46.104;19.656;2022-08-11T20:23:13;589.70;1254.40
56123;DHT22;42426;46.104;19.656;2022-08-11T20:26:00;589.70;1177.60
56123;DHT22;42426;46.104;19.656;2022-08-11T20:28:45;589.50;1152.00
56123;DHT22;42426;46.104;19.656;2022-08-11T20:31:30;589.60;1228.80
56123;DHT22;42426;46.104;19.656;2022-08-11T20:34:16;589.70;1177.60
56123;DHT22;42426;46.104;19.656;2022-08-11T20:37:03;589.60;1254.40
56123;DHT22;42426;46.104;19.656;2022-08-11T20:39:49;589.60;1228.80
56123;DHT22;42426;46.104;19.656;2022-08-11T20:42:34;614.40;1203.20
56123;DHT22;42426;46.104;19.656;2022-08-11T20:45:21;589.70;1228.80
56123;DHT22;42426;46.104;19.656;2022-08-11T20:48:06;589.70;1228.80
56123;DHT22;42426;46.104;19.656;2022-08-11T20:50:52;614.50;1203.20
56123;DHT22;42426;46.104;19.656;2022-08-11T20:53:41;614.50;1228.80
56123;DHT22;42426;46.104;19.656;2022-08-11T20:56:29;614.60;1203.20
56123;DHT22;42426;46.104;19.656;2022-08-11T20:59:16;614.60;1228.80
56123;DHT22;42426;46.104;19.656;2022-08-11T21:02:03;614.60;1177.60
56123;DHT22;42426;46.104;19.656;2022-08-11T21:04:49;614.60;1203.20
56123;DHT22;42426;46.104;19.656;2022-08-11T21:07:35;614.60;1203.20
56123;DHT22;42426;46.104;19.656;2022-08-11T21:10:21;614.50;1228.80
56123;DHT22;42426;46.104;19.656;2022-08-11T21:13:08;614.40;1203.20
56123;DHT22;42426;46.104;19.656;2022-08-11T21:15:57;614.50;1228.80
56123;DHT22;42426;46.104;19.656;2022-08-11T21:18:42;614.50;1203.20
56123;DHT22;42426;46.104;19.656;2022-08-11T21:21:28;614.50;1203.20
56123;DHT22;42426;46.104;19.656;2022-08-11T21:24:14;614.50;1203.20
56123;DHT22;42426;46.104;19.656;2022-08-11T21:27:02;589.70;1228.80
56123;DHT22;42426;46.104;19.656;2022-08-11T21:29:48;589.70;1228.80
56123;DHT22;42426;46.104;19.656;2022-08-11T21:32:33;589.60;1254.40
56123;DHT22;42426;46.104;19.656;2022-08-11T21:35:19;589.50;1280.00
56123;DHT22;42426;46.104;19.656;2022-08-11T21:38:04;589.60;1254.40
56123;DHT22;42426;46.104;19.656;2022-08-11T21:40:49;589.50;1228.80
56123;DHT22;42426;46.104;19.656;2022-08-11T21:43:34;589.60;1254.40
56123;DHT22;42426;46.104;19.656;2022-08-11T21:46:20;589.60;1254.40
56123;DHT22;42426;46.104;19.656;2022-08-11T21:49:07;589.50;1228.80
56123;DHT22;42426;46.104;19.656;2022-08-11T21:51:52;589.60;1228.80
56123;DHT22;42426;46.104;19.656;2022-08-11T21:54:39;589.50;1254.40
56123;DHT22;42426;46.104;19.656;2022-08-11T21:57:24;589.60;1254.40
56123;DHT22;42426;46.104;19.656;2022-08-11T22:00:09;589.60;1254.40
56123;DHT22;42426;46.104;19.656;2022-08-11T22:02:54;589.70;1254.40
56123;DHT22;42426;46.104;19.656;2022-08-11T22:05:40;589.60;1254.40
56123;DHT22;42426;46.104;19.656;2022-08-11T22:08:27;589.60;1254.40
56123;DHT22;42426;46.104;19.656;2022-08-11T22:11:12;589.70;1228.80
56123;DHT22;42426;46.104;19.656;2022-08-11T22:13:57;589.60;1254.40
56123;DHT22;42426;46.104;19.656;2022-08-11T22:16:41;589.50;1254.40
56123;DHT22;42426;46.104;19.656;2022-08-11T22:19:25;589.60;1254.40
56123;DHT22;42426;46.104;19.656;2022-08-11T22:22:12;589.70;1254.40
56123;DHT22;42426;46.104;19.656;2022-08-11T22:24:58;589.70;1254.40
56123;DHT22;42426;46.104;19.656;2022-08-11T22:27:43;589.60;1280.00
56123;DHT22;42426;46.104;19.656;2022-08-11T22:30:27;589.40;1254.40
56123;DHT22;42426;46.104;19.656;2022-08-11T22:33:13;589.70;1254.40
56123;DHT22;42426;46.104;19.656;2022-08-11T22:35:58;589.50;1280.00
56123;DHT22;42426;46.104;19.656;2022-08-11T22:41:29;589.20;1305.60
56123;DHT22;42426;46.104;19.656;2022-08-11T22:44:14;589.00;1331.20
56123;DHT22;42426;46.104;19.656;2022-08-11T22:46:59;589.20;1305.60
56123;DHT22;42426;46.104;19.656;2022-08-11T22:49:45;589.00;1331.20
56123;DHT22;42426;46.104;19.656;2022-08-11T22:52:31;589.00;1305.60
56123;DHT22;42426;46.104;19.656;2022-08-11T22:55:18;589.10;1305.60
56123;DHT22;42426;46.104;19.656;2022-08-11T22:58:05;588.90;1331.20
56123;DHT22;42426;46.104;19.656;2022-08-11T23:03:36;588.90;1331.20
56123;DHT22;42426;46.104;19.656;2022-08-11T23:06:21;564.10;1356.80